aviador You're here:

OMAL Decoded Metar

AL AIN in UNITED ARAB EMIRATES
Report Time2017-07-24 16:00:00
UTC Time2017-07-24 16:44:32
Flight Rules vfr VFR
Wind030° at 06 kt
W.Decomp.*RWY 01: 5.7 kt HW 2.0 kt RCW
W.Rank030° ranks 9
Current wind is below 030° avg. (6.2)
Visibility8000 m
Phenomena:N/A
Clouds:N/A
Expected CloudBase > 10,000 ft AGL from Temp-Dew spread
CeilingNone
Temp41°C (ISA +28)
Dew Point16°C (23% RH)
Heat Index42.0°C
AAT40.7°C
QNH0998 hPa
Density Alt4,718 ft
Elevation869 ft
Report Wrong Elevation
Raw Report
METAR OMAL 241600Z 03006KT 8000 NSC 41/16 Q0998 NOSIG=

Extra information for OMAL:More info

Metar Taf Metar & Taf Last 4 Metars F.Rules Stats Wind Profile Meteogram Temp Stats Airport Information Weather charts Add Link Nearby VenuesMetar ALERT Operation Metar Decoded Social comments